Time;durP1;ratioP1;P1;durP2;ratioP2;P2;SDS_P1;SDS_P2;PMS_P1;PMS_P2;Temp;Humidity;BMP_temperature;BMP_pressure;BME280_temperature;BME280_humidity;BME280_pressure;Samples;Min_cycle;Max_cycle;Signal;HPM_P1;HPM_P2
2022/05/29 00:00:45;;;;;;;3.60;2.33;;;12.60;91.90;;;;;;4987517;28;20448;-79
2022/05/29 00:03:11;;;;;;;2.87;2.67;;;12.50;92.10;;;;;;4986557;28;20851;-80
2022/05/29 00:05:39;;;;;;;2.00;1.87;;;12.50;92.30;;;;;;4987773;28;20460;-79
2022/05/29 00:08:07;;;;;;;1.87;1.77;;;12.40;92.30;;;;;;4987135;28;20455;-79
2022/05/29 00:10:38;;;;;;;2.10;1.53;;;12.30;92.10;;;;;;4987622;28;20466;-79
2022/05/29 00:13:05;;;;;;;2.77;2.50;;;12.30;92.40;;;;;;4986809;28;20505;-79
2022/05/29 00:15:33;;;;;;;1.90;1.73;;;12.30;92.60;;;;;;4987259;28;20458;-79
2022/05/29 00:18:00;;;;;;;2.40;2.20;;;12.40;93.00;;;;;;4988158;28;20459;-78
2022/05/29 00:20:27;;;;;;;1.97;1.87;;;12.40;93.00;;;;;;4987595;28;20458;-79
2022/05/29 00:22:54;;;;;;;3.07;1.70;;;12.50;93.40;;;;;;4988015;28;20502;-79
2022/05/29 00:25:20;;;;;;;2.43;2.20;;;12.50;93.10;;;;;;4988169;28;20487;-79
2022/05/29 00:27:47;;;;;;;2.10;2.00;;;12.50;93.00;;;;;;4988403;28;20455;-79
2022/05/29 00:30:14;;;;;;;2.90;2.70;;;12.60;93.40;;;;;;4987766;28;20454;-80
2022/05/29 00:32:42;;;;;;;2.53;2.27;;;12.60;93.20;;;;;;4988794;28;20829;-80
2022/05/29 00:35:10;;;;;;;2.13;1.93;;;12.50;93.20;;;;;;4987978;28;20459;-80
2022/05/29 00:37:40;;;;;;;3.07;2.77;;;12.40;93.50;;;;;;4988081;28;20464;-79
2022/05/29 00:40:15;;;;;;;2.40;2.20;;;12.30;93.60;;;;;;4987167;28;20459;-79
2022/05/29 00:42:42;;;;;;;3.60;3.30;;;12.30;93.80;;;;;;4987526;28;20494;-80
2022/05/29 00:45:15;;;;;;;3.60;3.30;;;12.40;94.10;;;;;;4987384;28;20452;-80
2022/05/29 00:47:43;;;;;;;3.23;2.93;;;12.40;93.70;;;;;;4987447;28;20862;-80
2022/05/29 00:50:10;;;;;;;2.10;1.97;;;12.30;93.60;;;;;;4986099;28;20456;-79
2022/05/29 00:52:38;;;;;;;2.47;2.27;;;12.30;93.70;;;;;;4987350;28;20455;-79
2022/05/29 00:55:11;;;;;;;2.60;2.40;;;12.20;93.60;;;;;;4987393;28;20452;-80
2022/05/29 00:57:42;;;;;;;3.07;2.40;;;12.20;93.80;;;;;;4987519;28;20489;-79
2022/05/29 01:00:12;;;;;;;2.70;2.50;;;12.30;93.80;;;;;;4986510;28;20492;-79
2022/05/29 01:02:40;;;;;;;2.33;2.13;;;12.30;93.50;;;;;;4987613;28;20502;-80
2022/05/29 01:05:10;;;;;;;3.37;2.50;;;12.30;93.70;;;;;;4986173;28;20486;-79
2022/05/29 01:07:38;;;;;;;2.63;2.37;;;12.30;93.80;;;;;;4986565;28;20466;-79
2022/05/29 01:10:07;;;;;;;2.10;1.97;;;12.20;94.30;;;;;;4987313;28;20455;-79
2022/05/29 01:12:41;;;;;;;2.60;2.40;;;12.30;93.90;;;;;;4987015;28;20485;-80
2022/05/29 01:15:20;;;;;;;4.13;2.70;;;12.50;93.90;;;;;;4987484;28;20462;-80
2022/05/29 01:17:56;;;;;;;4.33;2.83;;;12.50;93.70;;;;;;4987377;28;20463;-79
2022/05/29 01:20:39;;;;;;;3.50;2.63;;;12.60;93.70;;;;;;4987329;28;20462;-80
2022/05/29 01:23:41;;;;;;;3.10;2.90;;;12.60;93.60;;;;;;4987109;28;20499;-79
2022/05/29 01:26:42;;;;;;;3.93;3.63;;;12.60;93.60;;;;;;4987042;28;20455;-80
2022/05/29 01:29:15;;;;;;;2.60;2.30;;;12.60;93.40;;;;;;4987164;28;20454;-80
2022/05/29 01:31:48;;;;;;;5.30;4.90;;;12.40;93.70;;;;;;4986728;28;20455;-79
2022/05/29 01:34:29;;;;;;;4.00;3.70;;;12.30;93.80;;;;;;4988269;28;20474;-79
2022/05/29 01:37:05;;;;;;;2.53;2.43;;;12.20;94.70;;;;;;4987563;28;20451;-79
2022/05/29 01:39:36;;;;;;;6.20;3.40;;;12.10;97.00;;;;;;4984533;28;20455;-79
2022/05/29 01:42:08;;;;;;;3.50;3.20;;;12.10;98.60;;;;;;4983747;28;20485;-79
2022/05/29 01:44:41;;;;;;;4.13;3.93;;;12.00;99.90;;;;;;4981310;28;20465;-79
2022/05/29 01:47:14;;;;;;;4.80;3.33;;;11.90;99.90;;;;;;4982068;28;20461;-79
2022/05/29 01:49:46;;;;;;;3.90;3.70;;;11.70;99.90;;;;;;4983213;28;20463;-79
2022/05/29 01:52:17;;;;;;;3.80;3.60;;;11.50;99.90;;;;;;4980995;28;20452;-79
2022/05/29 01:54:49;;;;;;;4.00;3.70;;;11.50;99.90;;;;;;4980120;28;20461;-79
2022/05/29 01:57:19;;;;;;;5.80;5.20;;;11.60;99.90;;;;;;4980837;28;20447;-79
2022/05/29 01:59:51;;;;;;;4.33;4.03;;;11.60;99.90;;;;;;4981903;28;20476;-79
2022/05/29 02:02:21;;;;;;;6.50;5.20;;;11.50;99.90;;;;;;4982209;28;20474;-79
2022/05/29 02:04:53;;;;;;;4.90;4.60;;;11.50;99.90;;;;;;4981387;28;20462;-80
2022/05/29 02:10:11;;;;;;;4.80;4.17;;;11.40;99.90;;;;;;4982407;28;20983;-79
2022/05/29 02:12:43;;;;;;;4.60;4.18;;;11.20;99.90;;;;;;4981683;28;20486;-79
2022/05/29 02:15:18;;;;;;;5.17;4.73;;;11.00;99.90;;;;;;4982022;28;20216;-79
2022/05/29 02:17:50;;;;;;;5.13;4.70;;;11.00;99.90;;;;;;4982518;28;20458;-79
2022/05/29 02:20:22;;;;;;;6.40;5.97;;;11.00;99.90;;;;;;4980332;28;20454;-84
2022/05/29 02:22:50;;;;;;;6.00;5.00;;;10.90;99.90;;;;;;4980029;28;20502;-82
2022/05/29 02:25:21;;;;;;;4.70;4.30;;;11.00;99.90;;;;;;4980310;28;20948;-82
2022/05/29 02:27:53;;;;;;;6.30;5.80;;;11.00;99.90;;;;;;4979560;28;20941;-82
2022/05/29 02:30:23;;;;;;;7.37;5.27;;;11.00;99.90;;;;;;4979876;28;20465;-83
2022/05/29 02:32:59;;;;;;;6.13;5.13;;;11.00;99.90;;;;;;4980571;28;20471;-83
2022/05/29 02:35:33;;;;;;;5.60;5.20;;;11.00;99.90;;;;;;4979954;28;20456;-83
2022/05/29 02:38:06;;;;;;;3.97;3.77;;;11.00;99.90;;;;;;4980177;28;20455;-83
2022/05/29 02:40:43;;;;;;;5.27;4.63;;;11.00;99.90;;;;;;4979186;28;20494;-82
2022/05/29 02:43:18;;;;;;;4.43;4.03;;;10.70;99.90;;;;;;4979658;28;20493;-83
2022/05/29 02:45:51;;;;;;;4.60;4.10;;;10.50;99.90;;;;;;4979988;28;20439;-82
2022/05/29 02:48:26;;;;;;;18.67;4.67;;;10.70;99.90;;;;;;4980049;28;20449;-83
2022/05/29 02:50:59;;;;;;;4.90;4.40;;;10.70;99.90;;;;;;4979400;28;20430;-82
2022/05/29 02:53:26;;;;;;;4.90;4.60;;;10.80;99.90;;;;;;4984136;23;21012;-80
2022/05/29 02:55:53;;;;;;;4.50;4.20;;;10.80;99.90;;;;;;4962125;28;20451;-80
2022/05/29 02:58:23;;;;;;;4.80;4.40;;;10.90;99.90;;;;;;4970547;28;20458;-80
2022/05/29 03:01:04;;;;;;;9.70;5.23;;;11.00;99.90;;;;;;4976826;28;20459;-80
2022/05/29 03:03:35;;;;;;;5.03;4.73;;;11.00;99.90;;;;;;4973055;28;20499;-80
2022/05/29 03:06:12;;;;;;;5.27;4.87;;;11.10;99.90;;;;;;4968179;29;20491;-80
2022/05/29 03:08:53;;;;;;;4.13;3.83;;;11.10;99.90;;;;;;4960681;28;20439;-79
2022/05/29 03:11:27;;;;;;;4.30;3.90;;;11.10;99.90;;;;;;4959985;28;20459;-80
2022/05/29 03:14:03;;;;;;;4.90;4.57;;;10.90;99.90;;;;;;4960438;28;20475;-80
2022/05/29 03:16:41;;;;;;;4.97;4.57;;;10.60;99.90;;;;;;4960319;28;20518;-80
2022/05/29 03:19:17;;;;;;;5.07;3.70;;;10.50;99.90;;;;;;4960054;28;20454;-80
2022/05/29 03:21:50;;;;;;;5.10;4.07;;;10.30;99.90;;;;;;4960061;29;20461;-80
2022/05/29 03:24:25;;;;;;;4.23;3.80;;;10.20;99.90;;;;;;4959645;28;20505;-80
2022/05/29 03:26:57;;;;;;;3.80;3.50;;;10.10;99.90;;;;;;4959712;29;20465;-80
2022/05/29 03:29:30;;;;;;;3.87;3.60;;;10.00;99.90;;;;;;4960628;29;20885;-80
2022/05/29 03:31:59;;;;;;;4.17;3.97;;;9.90;99.90;;;;;;4959364;29;20460;-80
2022/05/29 03:34:26;;;;;;;3.80;3.50;;;9.90;99.90;;;;;;4960061;28;20470;-80
2022/05/29 03:36:52;;;;;;;3.40;3.17;;;9.80;99.90;;;;;;4959696;28;20449;-80
2022/05/29 03:39:20;;;;;;;4.57;3.67;;;9.80;99.90;;;;;;4959499;29;20465;-80
2022/05/29 03:41:48;;;;;;;3.90;3.60;;;9.80;99.90;;;;;;4959930;29;20930;-80
2022/05/29 03:44:18;;;;;;;3.27;3.07;;;9.90;99.90;;;;;;4959483;28;20501;-80
2022/05/29 03:46:46;;;;;;;5.40;3.73;;;9.80;99.90;;;;;;4960142;28;20450;-80
2022/05/29 03:49:15;;;;;;;3.27;3.10;;;9.80;99.90;;;;;;4959468;28;20454;-80
2022/05/29 03:51:42;;;;;;;4.00;3.57;;;9.90;99.90;;;;;;4959355;29;20461;-80
2022/05/29 03:54:10;;;;;;;4.03;3.77;;;9.90;99.90;;;;;;4959004;28;20479;-80
2022/05/29 03:56:37;;;;;;;3.37;3.03;;;9.80;99.90;;;;;;4959053;29;20463;-80
2022/05/29 03:59:05;;;;;;;3.13;2.93;;;9.80;99.90;;;;;;4959682;28;20455;-80
2022/05/29 04:01:32;;;;;;;4.07;3.40;;;9.90;99.90;;;;;;4959407;28;20576;-80
2022/05/29 04:04:00;;;;;;;2.80;2.60;;;9.90;99.90;;;;;;4959385;28;20514;-79
2022/05/29 04:06:30;;;;;;;3.40;3.10;;;9.80;99.90;;;;;;4960119;28;20451;-80
2022/05/29 04:14:29;;;;;;;3.75;3.45;;;9.80;99.90;;;;;;4958931;28;20466;-79
2022/05/29 04:16:55;;;;;;;4.30;3.47;;;9.80;99.90;;;;;;4960723;29;20236;-79
2022/05/29 04:19:22;;;;;;;4.17;3.40;;;9.80;99.90;;;;;;4969325;28;20225;-79
2022/05/29 04:21:51;;;;;;;2.95;2.75;;;9.70;99.90;;;;;;4964485;29;20454;-79
2022/05/29 04:24:19;;;;;;;3.55;2.85;;;9.80;99.90;;;;;;4957409;29;20231;-79
2022/05/29 04:26:46;;;;;;;3.00;2.80;;;9.80;99.90;;;;;;4956044;28;20261;-79
2022/05/29 04:29:13;;;;;;;3.73;3.53;;;9.80;99.90;;;;;;4949916;29;20544;-79
2022/05/29 04:32:59;;;;;;;10.00;4.10;;;9.80;99.90;;;;;;4950212;28;20986;-79
2022/05/29 04:34:26;;;;;;;3.42;3.15;;;9.80;99.90;;;;;;4953163;29;20547;-80
2022/05/29 04:36:54;;;;;;;4.23;4.03;;;9.80;99.90;;;;;;4963289;28;20207;-79
2022/05/29 04:39:20;;;;;;;3.67;3.10;;;9.90;99.90;;;;;;4965562;28;20209;-79
2022/05/29 04:41:47;;;;;;;3.10;2.90;;;10.00;99.90;;;;;;4966114;28;20448;-79
2022/05/29 04:44:14;;;;;;;3.83;3.40;;;10.10;99.90;;;;;;4965405;29;20480;-79
2022/05/29 04:46:41;;;;;;;3.30;2.60;;;10.20;99.90;;;;;;4959707;28;20528;-80
2022/05/29 04:49:07;;;;;;;5.00;3.23;;;10.30;99.90;;;;;;4949758;29;20454;-80
2022/05/29 04:51:34;;;;;;;3.57;3.03;;;10.30;99.90;;;;;;4950126;29;20450;-80
2022/05/29 04:54:02;;;;;;;2.57;2.37;;;10.50;99.90;;;;;;4949108;28;20491;-80
2022/05/29 04:56:29;;;;;;;3.20;3.00;;;10.70;99.90;;;;;;4951604;29;20483;-80
2022/05/29 04:58:55;;;;;;;4.70;3.00;;;10.50;99.90;;;;;;4949723;28;20453;-80
2022/05/29 05:01:22;;;;;;;3.30;2.63;;;10.40;99.90;;;;;;4948993;28;20459;-80
2022/05/29 05:03:49;;;;;;;3.87;3.63;;;10.40;99.90;;;;;;4949746;29;20494;-80
2022/05/29 05:06:15;;;;;;;4.70;4.40;;;10.30;99.90;;;;;;4950393;29;20461;-80
2022/05/29 05:08:42;;;;;;;4.13;3.50;;;10.00;99.90;;;;;;4949734;29;20459;-79
2022/05/29 05:11:10;;;;;;;3.55;3.25;;;10.00;99.90;;;;;;4949413;29;20465;-79
2022/05/29 05:13:37;;;;;;;3.50;3.20;;;9.90;99.90;;;;;;4951789;29;20223;-79
2022/05/29 05:16:05;;;;;;;3.50;2.93;;;9.90;99.90;;;;;;4949359;29;20462;-79
2022/05/29 05:18:33;;;;;;;3.70;3.40;;;9.90;99.90;;;;;;4954425;28;20829;-79
2022/05/29 05:21:00;;;;;;;4.13;3.72;;;9.80;99.90;;;;;;4952224;28;20451;-79
2022/05/29 05:23:28;;;;;;;2.70;2.60;;;9.80;99.90;;;;;;4949770;28;20259;-79
2022/05/29 05:25:54;;;;;;;4.07;3.72;;;9.90;99.90;;;;;;4954989;29;20203;-79
2022/05/29 05:28:23;;;;;;;3.20;2.97;;;9.90;99.90;;;;;;4952675;28;20207;-79
2022/05/29 05:30:49;;;;;;;3.37;3.17;;;9.90;99.90;;;;;;4952150;28;20452;-79
2022/05/29 05:33:16;;;;;;;3.97;3.67;;;10.10;99.90;;;;;;4952285;29;20487;-79
2022/05/29 05:35:43;;;;;;;3.43;3.10;;;10.30;99.90;;;;;;4955152;28;20452;-79
2022/05/29 05:38:09;;;;;;;5.57;4.10;;;10.40;99.90;;;;;;4951286;28;20474;-79
2022/05/29 05:40:36;;;;;;;4.00;3.00;;;10.50;99.90;;;;;;4953490;29;20455;-79
2022/05/29 05:43:03;;;;;;;3.03;2.93;;;10.60;99.90;;;;;;4950581;29;20468;-79
2022/05/29 05:45:31;;;;;;;3.23;3.03;;;10.70;99.90;;;;;;4952234;29;20511;-79
2022/05/29 05:47:58;;;;;;;3.00;2.80;;;10.80;99.90;;;;;;4949608;29;20448;-79
2022/05/29 05:50:24;;;;;;;4.20;3.80;;;10.70;99.90;;;;;;4961382;28;20842;-79
2022/05/29 05:52:52;;;;;;;3.17;2.90;;;10.60;99.90;;;;;;4961771;28;20483;-79
2022/05/29 05:55:19;;;;;;;4.40;4.07;;;10.60;99.90;;;;;;4946429;29;20456;-79
2022/05/29 05:57:46;;;;;;;3.37;3.17;;;10.60;99.90;;;;;;4962324;28;20478;-79
2022/05/29 06:00:18;;;;;;;5.13;3.23;;;10.70;99.90;;;;;;4961523;29;20516;-79
2022/05/29 06:02:46;;;;;;;3.30;3.00;;;10.90;99.90;;;;;;4962042;28;20514;-79
2022/05/29 06:05:15;;;;;;;3.70;3.40;;;10.90;99.90;;;;;;4961158;28;20486;-79
2022/05/29 06:07:42;;;;;;;4.47;3.70;;;11.00;99.90;;;;;;4962069;28;20827;-79
2022/05/29 06:10:10;;;;;;;4.43;4.03;;;11.10;99.90;;;;;;4961968;29;20460;-79
2022/05/29 06:12:37;;;;;;;4.20;3.90;;;10.90;99.90;;;;;;4967765;28;20483;-79
2022/05/29 06:15:04;;;;;;;4.23;4.03;;;10.90;99.90;;;;;;4971202;28;20516;-79
2022/05/29 06:17:31;;;;;;;4.10;3.63;;;10.80;99.90;;;;;;4962747;29;20462;-79
2022/05/29 06:19:59;;;;;;;3.57;3.30;;;10.70;99.90;;;;;;4961576;29;20456;-79
2022/05/29 06:22:26;;;;;;;3.00;2.80;;;10.60;99.90;;;;;;4961519;28;20458;-79
2022/05/29 06:24:53;;;;;;;3.10;2.90;;;10.60;99.90;;;;;;4961242;29;20847;-79
2022/05/29 06:27:20;;;;;;;4.00;2.90;;;10.60;99.90;;;;;;4961561;28;20982;-79
2022/05/29 06:29:46;;;;;;;3.53;3.33;;;10.60;99.90;;;;;;4961168;28;20455;-79
2022/05/29 06:32:15;;;;;;;3.63;3.43;;;10.70;99.90;;;;;;4960753;29;20984;-79
2022/05/29 06:34:42;;;;;;;3.13;2.43;;;10.70;99.90;;;;;;4960163;28;20456;-79
2022/05/29 06:37:10;;;;;;;3.40;3.07;;;10.80;99.90;;;;;;4960641;28;20451;-78
2022/05/29 06:39:37;;;;;;;6.20;4.23;;;10.90;99.90;;;;;;4960678;29;20449;-79
2022/05/29 06:42:05;;;;;;;7.47;4.27;;;11.10;99.90;;;;;;4955435;28;20482;-80
2022/05/29 06:44:32;;;;;;;3.17;2.87;;;11.30;99.90;;;;;;4960652;28;20522;-78
2022/05/29 06:46:59;;;;;;;3.53;3.23;;;11.50;99.90;;;;;;4959664;28;20551;-78
2022/05/29 06:49:25;;;;;;;4.13;3.23;;;11.60;99.90;;;;;;4959090;29;20803;-78
2022/05/29 06:51:52;;;;;;;3.50;3.20;;;11.70;99.90;;;;;;4959271;29;20455;-79
2022/05/29 06:54:20;;;;;;;5.57;3.27;;;11.90;99.90;;;;;;4959641;28;20551;-79
2022/05/29 06:56:47;;;;;;;3.90;3.47;;;12.10;99.90;;;;;;4959870;29;20463;-79
2022/05/29 06:59:13;;;;;;;2.80;2.70;;;12.10;99.90;;;;;;4959242;29;20473;-78
2022/05/29 07:07:12;;;;;;;2.97;2.70;;;12.40;99.90;;;;;;4940138;29;20507;-80
2022/05/29 07:09:41;;;;;;;3.33;3.13;;;12.30;99.90;;;;;;4945566;29;20467;-79
2022/05/29 07:12:11;;;;;;;3.23;3.03;;;12.40;99.90;;;;;;4959370;28;20453;-78
2022/05/29 07:14:41;;;;;;;4.20;2.97;;;12.40;99.90;;;;;;4959206;28;20456;-79
2022/05/29 07:17:07;;;;;;;3.50;3.30;;;12.40;99.90;;;;;;4959082;29;20453;-79
2022/05/29 07:19:35;;;;;;;4.07;2.83;;;12.40;99.90;;;;;;4959617;29;20463;-79
2022/05/29 07:22:01;;;;;;;5.20;3.40;;;12.50;99.90;;;;;;4959329;28;20453;-78
2022/05/29 07:24:29;;;;;;;4.90;3.20;;;12.40;99.90;;;;;;4958191;28;20495;-78
2022/05/29 07:26:57;;;;;;;2.80;2.60;;;12.40;99.90;;;;;;4958987;29;20461;-78
2022/05/29 07:29:24;;;;;;;4.00;2.30;;;12.40;99.90;;;;;;4959167;29;20462;-79
2022/05/29 07:31:53;;;;;;;4.13;2.53;;;12.50;99.90;;;;;;4958410;28;20468;-78
2022/05/29 07:34:20;;;;;;;3.23;2.50;;;12.60;99.90;;;;;;4959099;28;20851;-79
2022/05/29 07:36:49;;;;;;;2.50;2.40;;;12.50;99.30;;;;;;4958825;29;20453;-79
2022/05/29 07:39:17;;;;;;;4.10;2.43;;;12.60;99.80;;;;;;4958494;29;21018;-78
2022/05/29 07:44:29;;;;;;;1.93;1.80;;;12.70;99.50;;;;;;4958001;29;20492;-79
2022/05/29 07:46:56;;;;;;;3.43;2.30;;;12.90;99.30;;;;;;4958639;29;21017;-78
2022/05/29 07:49:23;;;;;;;3.50;2.23;;;12.80;98.20;;;;;;4958465;28;20530;-78
2022/05/29 07:51:50;;;;;;;5.60;2.73;;;13.00;98.80;;;;;;4957973;28;20460;-78
2022/05/29 07:54:17;;;;;;;2.40;2.23;;;13.20;98.40;;;;;;4958232;28;20480;-78
2022/05/29 07:56:44;;;;;;;2.00;1.77;;;13.40;97.90;;;;;;4958747;29;20981;-78
2022/05/29 07:59:14;;;;;;;2.03;1.93;;;13.40;97.70;;;;;;4959047;28;20453;-80
2022/05/29 08:01:42;;;;;;;2.90;2.80;;;13.60;97.80;;;;;;4958393;28;20552;-79
2022/05/29 08:04:09;;;;;;;2.33;2.13;;;13.70;97.50;;;;;;4958562;28;20995;-78
2022/05/29 08:06:36;;;;;;;3.57;2.93;;;13.70;97.30;;;;;;4957894;29;20461;-78
2022/05/29 08:09:04;;;;;;;2.90;2.10;;;13.70;96.70;;;;;;4958416;29;20453;-78
2022/05/29 08:11:30;;;;;;;2.50;2.30;;;13.50;96.50;;;;;;4957985;29;20460;-78
2022/05/29 08:13:58;;;;;;;2.90;2.20;;;13.10;96.30;;;;;;4958150;28;20473;-78
2022/05/29 08:16:24;;;;;;;2.50;2.30;;;12.90;97.10;;;;;;4958240;29;20463;-78
2022/05/29 08:18:53;;;;;;;2.07;1.87;;;12.60;97.70;;;;;;4958191;29;20452;-78
2022/05/29 08:21:20;;;;;;;2.63;2.10;;;12.50;98.70;;;;;;4957710;28;20464;-78
2022/05/29 08:30:37;;;;;;;2.40;2.20;;;12.40;99.50;;;;;;4957776;28;20476;-79
2022/05/29 08:32:08;;;;;;;2.47;2.37;;;11.80;99.90;;;;;;4920245;28;21097;-79
2022/05/29 08:34:36;;;;;;;5.70;2.53;;;11.90;99.90;;;;;;4958992;28;20589;-79
2022/05/29 08:37:03;;;;;;;4.57;2.97;;;11.90;99.90;;;;;;4957994;29;20457;-79
2022/05/29 08:39:30;;;;;;;3.73;2.80;;;11.90;99.90;;;;;;4958182;29;20847;-79
2022/05/29 08:41:59;;;;;;;6.73;2.90;;;11.90;99.90;;;;;;4959319;28;20845;-79
2022/05/29 08:44:36;;;;;;;4.83;3.33;;;11.90;99.90;;;;;;4958391;28;20853;-79
2022/05/29 08:47:04;;;;;;;5.30;2.23;;;11.70;99.90;;;;;;4958905;29;20451;-79
2022/05/29 08:49:34;;;;;;;2.57;2.37;;;11.50;99.90;;;;;;4948987;29;20451;-78
2022/05/29 08:52:19;;;;;;;3.77;2.70;;;11.40;99.90;;;;;;4956083;29;20443;-78
2022/05/29 08:54:51;;;;;;;4.33;3.57;;;11.20;99.90;;;;;;4957454;29;20451;-78
2022/05/29 08:57:43;;;;;;;4.80;2.47;;;11.20;99.90;;;;;;4987035;23;20497;-81
2022/05/29 09:00:16;;;;;;;4.13;3.10;;;11.20;99.90;;;;;;5002076;28;20578;-82
2022/05/29 09:02:53;;;;;;;4.93;2.70;;;11.10;99.90;;;;;;5000864;28;20472;-82
2022/05/29 09:05:30;;;;;;;2.57;2.40;;;11.20;99.90;;;;;;5001627;28;20900;-83
2022/05/29 09:08:04;;;;;;;4.33;2.73;;;11.40;99.90;;;;;;4988347;28;20474;-83
2022/05/29 09:10:41;;;;;;;4.73;2.60;;;11.20;99.90;;;;;;4988500;28;20454;-83
2022/05/29 09:13:15;;;;;;;3.80;3.13;;;11.10;99.90;;;;;;5004074;28;20935;-81
2022/05/29 09:15:47;;;;;;;5.03;2.67;;;11.10;99.90;;;;;;5006663;28;20483;-82
2022/05/29 09:18:21;;;;;;;3.10;2.60;;;11.10;99.90;;;;;;4988164;28;20494;-81
2022/05/29 09:20:52;;;;;;;4.27;3.23;;;11.10;99.90;;;;;;4989526;28;20873;-81
2022/05/29 09:23:28;;;;;;;4.20;2.77;;;11.00;99.90;;;;;;4991963;28;20459;-81
2022/05/29 09:25:56;;;;;;;3.43;3.13;;;11.20;99.90;;;;;;5000563;28;20487;-84
2022/05/29 09:28:33;;;;;;;3.93;2.50;;;11.20;99.90;;;;;;4990978;28;20477;-84
2022/05/29 09:31:07;;;;;;;6.23;5.63;;;11.00;99.90;;;;;;5000753;28;20452;-84
2022/05/29 09:33:35;;;;;;;3.67;2.30;;;11.10;99.90;;;;;;4993948;28;20454;-87
2022/05/29 09:36:10;;;;;;;10.50;4.77;;;11.10;99.90;;;;;;5001898;28;20466;-85
2022/05/29 09:38:42;;;;;;;5.93;4.23;;;11.00;99.90;;;;;;4993080;28;20571;-84
2022/05/29 09:41:14;;;;;;;7.17;6.57;;;11.20;99.90;;;;;;4982794;28;20469;-84
2022/05/29 09:43:41;;;;;;;3.47;3.20;;;11.30;99.90;;;;;;4993524;28;20473;-85
2022/05/29 09:46:20;;;;;;;3.27;2.97;;;11.40;99.90;;;;;;5003431;28;20563;-85
2022/05/29 09:51:44;;;;;;;3.33;3.00;;;11.60;99.90;;;;;;5002542;28;20517;-85
2022/05/29 09:54:24;;;;;;;2.10;1.90;;;11.80;99.90;;;;;;4989113;28;20486;-84
2022/05/29 09:56:51;;;;;;;3.93;1.93;;;11.90;99.90;;;;;;4993108;28;20921;-83
2022/05/29 09:59:21;;;;;;;3.00;2.10;;;12.00;99.90;;;;;;5002485;28;20457;-86
2022/05/29 10:01:49;;;;;;;5.13;2.40;;;12.20;99.90;;;;;;4999517;28;20455;-84
2022/05/29 10:04:22;;;;;;;2.93;1.80;;;12.50;98.70;;;;;;4998611;28;20454;-85
2022/05/29 10:06:54;;;;;;;6.10;2.10;;;12.60;98.40;;;;;;4998633;28;20859;-85
2022/05/29 10:09:25;;;;;;;23.47;2.93;;;12.60;96.50;;;;;;4998783;28;20438;-84
2022/05/29 10:11:53;;;;;;;4.13;2.47;;;12.90;97.70;;;;;;4983786;28;20860;-84
2022/05/29 10:14:35;;;;;;;2.33;2.10;;;13.00;96.60;;;;;;4979010;28;20460;-85
2022/05/29 10:17:07;;;;;;;5.53;2.80;;;13.00;97.00;;;;;;4982299;28;20471;-84
2022/05/29 10:19:37;;;;;;;2.97;2.03;;;12.90;96.90;;;;;;4987317;28;20439;-84
2022/05/29 10:22:12;;;;;;;2.33;2.10;;;13.10;96.60;;;;;;4980866;28;20535;-84
2022/05/29 10:24:41;;;;;;;2.93;2.13;;;13.10;97.00;;;;;;4982341;28;20463;-85
2022/05/29 10:27:13;;;;;;;4.20;3.90;;;12.90;96.10;;;;;;4998005;28;20475;-84
2022/05/29 10:29:41;;;;;;;2.00;1.90;;;12.60;97.30;;;;;;4988910;28;20459;-83
2022/05/29 10:32:20;;;;;;;2.10;1.53;;;12.60;97.70;;;;;;4983648;28;20515;-85
2022/05/29 10:34:47;;;;;;;3.43;2.40;;;12.30;97.70;;;;;;4996307;28;20466;-85
2022/05/29 10:37:36;;;;;;;2.43;2.23;;;12.10;98.80;;;;;;4981698;28;20482;-84
2022/05/29 10:40:21;;;;;;;3.90;2.30;;;12.00;99.00;;;;;;4993091;28;20469;-85
2022/05/29 10:42:50;;;;;;;4.10;3.00;;;11.80;99.10;;;;;;4981346;28;20472;-85
2022/05/29 10:45:20;;;;;;;2.70;2.23;;;11.80;99.90;;;;;;4990337;28;20496;-86
2022/05/29 10:48:05;;;;;;;6.53;2.50;;;11.70;99.90;;;;;;4996673;28;20482;-84
2022/05/29 10:50:43;;;;;;;2.00;1.67;;;11.40;99.90;;;;;;5000894;28;20431;-84
2022/05/29 10:53:22;;;;;;;3.97;2.17;;;11.30;99.90;;;;;;5004481;28;20438;-86
2022/05/29 10:55:59;;;;;;;2.80;2.13;;;11.50;99.90;;;;;;4985546;28;20466;-83
2022/05/29 10:58:51;;;;;;;3.83;2.20;;;11.60;99.90;;;;;;4984486;28;20513;-86
2022/05/29 11:04:45;;;;;;;2.60;2.13;;;11.70;99.90;;;;;;4991966;28;20466;-84
2022/05/29 11:07:32;;;;;;;2.73;2.57;;;11.90;99.90;;;;;;5003340;28;20504;-85
2022/05/29 11:10:17;;;;;;;2.20;1.60;;;11.70;99.90;;;;;;4990132;28;20464;-83
2022/05/29 11:15:53;;;;;;;1.60;1.50;;;11.70;99.90;;;;;;4998527;28;20447;-86
2022/05/29 11:18:44;;;;;;;3.77;1.50;;;12.00;99.70;;;;;;4990170;28;20818;-85
2022/05/29 11:21:21;;;;;;;1.80;1.70;;;12.00;99.50;;;;;;4973295;28;20880;-84
2022/05/29 11:24:06;;;;;;;1.50;1.40;;;12.20;98.50;;;;;;4992394;28;20455;-81
2022/05/29 11:26:43;;;;;;;2.53;1.57;;;12.10;97.90;;;;;;5001198;28;20494;-81
2022/05/29 11:29:25;;;;;;;1.70;1.60;;;12.20;98.00;;;;;;5000836;28;20454;-82
2022/05/29 11:31:58;;;;;;;2.00;1.70;;;12.30;97.60;;;;;;5000197;28;21002;-81
2022/05/29 11:34:35;;;;;;;1.97;1.80;;;12.80;97.90;;;;;;4999735;28;20455;-82
2022/05/29 11:37:27;;;;;;;2.37;1.50;;;13.30;96.20;;;;;;5000134;28;20968;-82
2022/05/29 11:39:59;;;;;;;2.43;2.23;;;13.70;95.80;;;;;;4996731;28;20455;-83
2022/05/29 11:42:28;;;;;;;2.30;1.67;;;14.10;94.50;;;;;;4999492;28;20458;-80
2022/05/29 11:45:01;;;;;;;1.33;1.30;;;14.00;93.50;;;;;;4999363;28;20525;-80
2022/05/29 11:53:18;;;;;;;6.33;2.10;;;15.30;92.70;;;;;;4999572;28;20440;-81
2022/05/29 11:55:47;;;;;;;2.37;1.40;;;15.60;92.50;;;;;;5001173;28;20530;-82
2022/05/29 11:58:19;;;;;;;2.33;1.73;;;16.20;91.00;;;;;;5001007;28;20850;-84
2022/05/29 12:00:53;;;;;;;2.00;1.90;;;17.00;91.40;;;;;;5002152;28;20446;-81
2022/05/29 12:03:29;;;;;;;3.93;2.10;;;17.70;87.20;;;;;;5001079;28;20512;-82
2022/05/29 12:06:00;;;;;;;1.90;1.50;;;18.30;83.10;;;;;;4999470;28;20486;-81
2022/05/29 12:08:34;;;;;;;2.30;2.10;;;18.50;83.60;;;;;;4998990;28;20932;-81
2022/05/29 12:11:07;;;;;;;2.87;1.70;;;18.50;87.00;;;;;;4998980;28;20458;-81
2022/05/29 12:13:38;;;;;;;1.97;1.77;;;18.50;87.60;;;;;;5000112;28;20453;-81
2022/05/29 12:16:11;;;;;;;2.17;1.97;;;18.00;85.70;;;;;;4999955;28;20456;-81
2022/05/29 12:18:44;;;;;;;2.67;2.23;;;17.80;87.50;;;;;;5000406;28;20959;-81
2022/05/29 12:21:15;;;;;;;1.73;1.60;;;17.70;89.30;;;;;;4999103;28;20454;-81
2022/05/29 12:23:45;;;;;;;4.17;2.00;;;17.60;89.40;;;;;;4999621;28;20466;-81
2022/05/29 12:26:17;;;;;;;2.40;2.13;;;17.70;90.00;;;;;;4999644;28;20493;-81
2022/05/29 12:28:50;;;;;;;1.93;1.83;;;17.70;88.90;;;;;;4999776;28;20454;-81
2022/05/29 12:31:23;;;;;;;1.77;1.67;;;17.80;88.90;;;;;;4998803;28;20486;-81
2022/05/29 12:33:50;;;;;;;2.57;2.37;;;18.00;90.30;;;;;;4998782;28;20469;-81
2022/05/29 12:36:30;;;;;;;2.20;2.00;;;18.50;90.70;;;;;;4998997;28;20455;-83
2022/05/29 12:39:19;;;;;;;3.30;2.33;;;18.90;88.40;;;;;;4998984;28;20454;-81
2022/05/29 12:42:21;;;;;;;2.70;2.47;;;19.10;87.40;;;;;;4998403;28;20788;-82
2022/05/29 12:45:11;;;;;;;2.53;2.17;;;19.00;84.80;;;;;;4997579;28;20457;-81
2022/05/29 12:48:18;;;;;;;2.47;1.87;;;18.40;85.90;;;;;;4989770;28;20493;-81
2022/05/29 12:51:09;;;;;;;5.67;2.67;;;18.40;87.80;;;;;;4993749;28;20455;-82
2022/05/29 12:54:07;;;;;;;3.00;2.80;;;18.20;88.10;;;;;;4989019;28;20455;-82
2022/05/29 12:56:52;;;;;;;1.87;1.70;;;18.00;90.00;;;;;;4996980;28;20452;-82
2022/05/29 12:59:46;;;;;;;2.40;1.97;;;18.50;90.40;;;;;;4989153;28;20451;-83
2022/05/29 13:02:24;;;;;;;1.77;1.43;;;19.00;86.50;;;;;;4982867;28;20455;-81
2022/05/29 13:05:20;;;;;;;3.20;2.50;;;19.50;83.70;;;;;;4994568;28;20481;-80
2022/05/29 13:08:06;;;;;;;1.60;1.50;;;19.60;82.40;;;;;;4978097;28;21004;-81
2022/05/29 13:10:37;;;;;;;1.90;1.80;;;19.80;81.90;;;;;;4979294;28;20952;-81
2022/05/29 13:13:08;;;;;;;2.87;2.40;;;19.90;81.10;;;;;;4979941;28;20866;-82
2022/05/29 13:15:37;;;;;;;1.37;1.33;;;19.70;81.00;;;;;;4989481;28;20454;-82
2022/05/29 13:18:14;;;;;;;1.97;1.87;;;19.40;81.60;;;;;;4985574;28;20471;-82
2022/05/29 13:21:12;;;;;;;3.07;1.50;;;19.10;81.70;;;;;;4980395;28;20455;-82
2022/05/29 13:23:44;;;;;;;3.53;1.60;;;18.70;83.10;;;;;;4962706;28;20479;-82
2022/05/29 13:26:20;;;;;;;1.50;1.40;;;18.70;84.00;;;;;;4998284;28;20481;-81
2022/05/29 13:28:59;;;;;;;2.10;2.00;;;18.80;84.00;;;;;;4980520;28;20462;-82
2022/05/29 13:31:27;;;;;;;2.23;1.83;;;18.90;82.80;;;;;;4984579;28;20478;-82
2022/05/29 13:34:19;;;;;;;3.30;1.63;;;19.10;82.50;;;;;;4992981;28;20448;-81
2022/05/29 13:37:10;;;;;;;2.23;1.90;;;20.00;82.60;;;;;;4980578;28;20473;-81
2022/05/29 13:39:52;;;;;;;1.67;1.57;;;21.30;79.50;;;;;;4981564;28;20457;-82
2022/05/29 13:42:30;;;;;;;1.57;1.47;;;22.60;74.10;;;;;;4996786;28;20940;-81
2022/05/29 13:44:57;;;;;;;1.27;1.17;;;23.20;63.40;;;;;;4989139;28;20822;-81
2022/05/29 13:47:32;;;;;;;1.60;1.33;;;23.50;63.90;;;;;;4982510;28;20492;-81
2022/05/29 13:50:01;;;;;;;1.47;1.20;;;24.10;59.90;;;;;;4984036;28;20448;-81